Time;durP1;ratioP1;P1;durP2;ratioP2;P2;SDS_P1;SDS_P2;PMS_P1;PMS_P2;Temp;Humidity;BMP_temperature;BMP_pressure;BME280_temperature;BME280_humidity;BME280_pressure;Samples;Min_cycle;Max_cycle;Signal;HPM_P1;HPM_P2
2024/04/04 00:01:55;;;;;;;7.25;2.10;;;;;;;12.71;80.07;100571.84;5093905;28;20055;-82
2024/04/04 00:05:01;;;;;;;6.40;2.47;;;;;;;12.55;80.66;100576.94;5093983;28;20499;-81
2024/04/04 00:08:06;;;;;;;6.38;2.05;;;;;;;12.22;81.09;100570.97;5081248;28;20059;-81
2024/04/04 00:11:13;;;;;;;8.30;1.70;;;;;;;12.24;81.58;100570.84;5081187;28;20047;-79
2024/04/04 00:14:17;;;;;;;4.10;1.20;;;;;;;12.49;80.63;100575.69;5081009;28;20043;-80
2024/04/04 00:17:22;;;;;;;4.82;1.50;;;;;;;12.51;80.15;100565.63;5094954;28;20051;-80
2024/04/04 00:20:28;;;;;;;6.60;2.60;;;;;;;12.63;79.80;100569.03;5097847;28;20051;-79
2024/04/04 00:23:33;;;;;;;5.68;1.55;;;;;;;12.76;79.67;100558.81;5097406;28;20395;-80
2024/04/04 00:26:37;;;;;;;4.20;1.50;;;;;;;12.62;79.48;100560.09;5084918;28;20048;-79
2024/04/04 00:29:42;;;;;;;7.55;1.67;;;;;;;12.47;79.91;100553.44;5097291;28;20075;-81
2024/04/04 00:32:46;;;;;;;5.05;1.52;;;;;;;12.41;80.35;100559.38;5097519;28;20379;-80
2024/04/04 00:35:52;;;;;;;6.57;1.90;;;;;;;12.50;79.80;100552.28;5097434;28;20383;-79
2024/04/04 00:38:57;;;;;;;6.32;1.50;;;;;;;12.54;79.87;100543.78;5085139;28;20059;-81
2024/04/04 00:42:02;;;;;;;4.72;1.30;;;;;;;12.46;79.25;100546.34;5096920;28;20482;-81
2024/04/04 00:45:06;;;;;;;8.10;2.15;;;;;;;12.11;81.15;100544.22;5097218;28;20051;-80
2024/04/04 00:48:11;;;;;;;8.20;3.45;;;;;;;12.38;80.25;100544.38;5084742;28;20055;-79
2024/04/04 00:51:16;;;;;;;8.60;2.50;;;;;;;12.35;79.61;100555.41;5097141;28;20047;-80
2024/04/04 00:54:20;;;;;;;7.53;2.40;;;;;;;12.36;80.10;100557.13;5097116;28;20059;-80
2024/04/04 00:57:25;;;;;;;5.55;1.52;;;;;;;12.35;79.85;100563.50;5075263;28;20068;-81
2024/04/04 01:00:29;;;;;;;4.53;1.50;;;;;;;12.44;80.06;100564.50;5064323;28;20055;-80
2024/04/04 01:03:34;;;;;;;3.33;1.30;;;;;;;12.34;80.51;100569.84;5076690;28;20154;-80
2024/04/04 01:06:47;;;;;;;6.35;2.20;;;;;;;12.35;80.63;100574.25;5075877;28;20047;-80
2024/04/04 01:09:52;;;;;;;6.45;1.45;;;;;;;12.46;80.37;100575.13;5076553;28;20502;-82
2024/04/04 01:12:58;;;;;;;5.45;1.42;;;;;;;12.57;79.68;100569.56;5075775;28;20048;-80
2024/04/04 01:16:02;;;;;;;4.57;1.80;;;;;;;12.65;79.41;100564.34;5075694;28;20047;-80
2024/04/04 01:19:07;;;;;;;8.02;1.90;;;;;;;12.55;79.76;100571.56;5076457;28;20383;-80
2024/04/04 01:22:12;;;;;;;6.15;1.92;;;;;;;12.52;79.90;100571.88;5075526;28;20392;-81
2024/04/04 01:25:16;;;;;;;3.67;1.20;;;;;;;12.56;79.47;100576.81;5076250;28;20506;-80
2024/04/04 01:28:21;;;;;;;5.45;1.65;;;;;;;12.60;79.59;100574.69;5075121;28;20052;-80
2024/04/04 01:31:27;;;;;;;7.90;2.13;;;;;;;12.58;79.84;100574.84;5076111;28;20380;-80
2024/04/04 01:34:32;;;;;;;4.53;1.77;;;;;;;12.57;79.34;100585.72;5076179;28;20055;-80
2024/04/04 01:37:38;;;;;;;4.32;1.50;;;;;;;12.57;79.59;100580.34;5075935;28;20056;-81
2024/04/04 01:40:42;;;;;;;6.45;1.67;;;;;;;12.57;79.08;100585.72;5076032;28;20055;-80
2024/04/04 01:43:47;;;;;;;7.22;1.80;;;;;;;12.33;79.43;100581.63;5076072;28;20068;-80
2024/04/04 01:46:51;;;;;;;3.95;1.35;;;;;;;12.25;79.88;100588.69;5075817;28;20383;-79
2024/04/04 01:49:55;;;;;;;4.00;1.35;;;;;;;12.36;79.10;100583.19;5075784;28;20059;-80
2024/04/04 01:53:00;;;;;;;5.65;1.40;;;;;;;11.94;80.76;100582.56;5075796;28;20056;-80
2024/04/04 01:56:05;;;;;;;4.57;1.30;;;;;;;12.03;80.59;100576.34;5080350;28;20051;-80
2024/04/04 01:59:12;;;;;;;3.75;1.08;;;;;;;11.52;82.48;100589.03;5083484;28;20110;-80
2024/04/04 02:02:16;;;;;;;5.70;1.83;;;;;;;11.42;83.15;100590.81;5095688;28;20067;-80
2024/04/04 02:05:21;;;;;;;4.68;1.20;;;;;;;11.54;83.43;100584.34;5095757;28;20051;-79
2024/04/04 02:08:25;;;;;;;6.53;1.40;;;;;;;11.51;83.49;100574.72;5095614;28;20098;-79
2024/04/04 02:11:31;;;;;;;6.40;1.10;;;;;;;11.73;82.20;100581.75;5095641;28;20478;-79
2024/04/04 02:14:36;;;;;;;4.20;1.27;;;;;;;11.60;82.98;100586.50;5071719;28;20071;-79
2024/04/04 02:17:40;;;;;;;6.03;1.58;;;;;;;11.77;82.21;100583.22;5083108;28;20048;-80
2024/04/04 02:20:48;;;;;;;7.28;1.23;;;;;;;11.80;81.67;100582.91;5095485;28;20066;-80
2024/04/04 02:23:52;;;;;;;7.05;2.53;;;;;;;11.87;81.36;100584.09;5095022;28;20055;-79
2024/04/04 02:26:57;;;;;;;7.43;1.95;;;;;;;11.89;81.52;100589.31;5095186;28;20047;-80
2024/04/04 02:30:02;;;;;;;6.63;2.58;;;;;;;11.93;80.90;100582.66;5095250;28;20340;-79
2024/04/04 02:33:07;;;;;;;11.02;2.25;;;;;;;11.89;81.16;100586.63;5071608;28;20054;-78
2024/04/04 02:36:12;;;;;;;12.63;3.85;;;;;;;11.76;81.28;100605.69;5082616;28;20047;-79
2024/04/04 02:39:16;;;;;;;9.05;2.15;;;;;;;11.74;81.03;100605.00;5094874;28;20047;-78
2024/04/04 02:42:21;;;;;;;7.82;2.03;;;;;;;11.76;80.76;100605.69;5095006;28;20352;-80
2024/04/04 02:45:25;;;;;;;5.20;1.60;;;;;;;11.72;80.95;100613.22;5082410;28;20390;-80
2024/04/04 02:48:30;;;;;;;4.60;1.88;;;;;;;11.85;80.54;100615.63;5082547;28;20043;-80
2024/04/04 02:51:35;;;;;;;4.55;1.00;;;;;;;11.99;80.14;100606.34;5094539;28;20059;-80
2024/04/04 02:54:40;;;;;;;9.27;2.55;;;;;;;11.90;80.81;100599.09;5094805;28;20043;-80
2024/04/04 02:57:44;;;;;;;7.15;1.85;;;;;;;12.01;80.07;100607.91;5094173;28;20067;-80
2024/04/04 03:00:52;;;;;;;4.70;1.20;;;;;;;11.80;81.25;100609.81;5094588;28;20447;-79
2024/04/04 03:03:56;;;;;;;6.40;1.42;;;;;;;11.64;81.90;100612.13;5081958;28;20051;-80
2024/04/04 03:07:00;;;;;;;5.55;1.55;;;;;;;11.81;81.93;100602.59;5094439;28;20474;-79
2024/04/04 03:10:06;;;;;;;7.03;2.17;;;;;;;11.73;82.06;100609.50;5094329;28;20150;-80
2024/04/04 03:13:10;;;;;;;6.53;1.40;;;;;;;11.79;81.63;100608.13;5094506;28;20054;-79
2024/04/04 03:16:15;;;;;;;3.78;1.08;;;;;;;11.55;82.23;100607.56;5094533;28;20486;-80
2024/04/04 03:19:19;;;;;;;6.32;1.13;;;;;;;11.52;82.63;100606.00;5094478;28;20047;-79
2024/04/04 03:22:24;;;;;;;6.93;1.48;;;;;;;11.30;83.41;100605.31;5094177;28;20078;-81
2024/04/04 03:25:28;;;;;;;5.25;1.20;;;;;;;11.03;84.85;100611.25;5094123;28;20055;-79
2024/04/04 03:28:33;;;;;;;8.60;1.42;;;;;;;10.95;84.81;100608.34;5094051;28;20059;-81
2024/04/04 03:31:38;;;;;;;6.22;1.30;;;;;;;10.94;85.55;100607.50;5093985;28;20067;-79
2024/04/04 03:34:42;;;;;;;3.97;1.35;;;;;;;11.10;84.64;100605.22;5094086;28;20051;-78
2024/04/04 03:37:46;;;;;;;5.80;1.05;;;;;;;11.13;84.90;100608.63;5093888;28;20063;-79
2024/04/04 03:40:54;;;;;;;4.65;1.25;;;;;;;11.37;83.37;100606.47;5093950;28;20379;-80
2024/04/04 03:43:59;;;;;;;5.15;1.60;;;;;;;11.24;84.01;100589.72;5093769;28;20063;-81
2024/04/04 03:47:04;;;;;;;5.95;2.10;;;;;;;11.43;82.73;100593.34;5093860;28;20394;-80
2024/04/04 03:50:09;;;;;;;9.43;2.28;;;;;;;11.32;82.93;100597.97;5093931;28;20070;-79
2024/04/04 03:53:14;;;;;;;6.90;2.28;;;;;;;11.03;84.05;100595.13;5093147;28;20161;-81
2024/04/04 03:56:18;;;;;;;5.32;2.22;;;;;;;10.84;84.99;100595.81;5093392;28;20450;-80
2024/04/04 03:59:23;;;;;;;8.43;1.48;;;;;;;10.73;85.37;100587.00;5093670;28;20422;-80
2024/04/04 04:02:27;;;;;;;6.05;1.27;;;;;;;10.60;85.49;100587.16;5093791;28;20059;-79
2024/04/04 04:05:33;;;;;;;4.85;1.40;;;;;;;10.86;84.40;100579.59;5093685;28;20050;-80
2024/04/04 04:08:37;;;;;;;4.85;1.70;;;;;;;10.92;84.37;100582.59;5093624;28;20055;-80
2024/04/04 04:11:42;;;;;;;6.22;2.30;;;;;;;10.74;84.09;100576.09;5093320;28;20525;-80
2024/04/04 04:14:47;;;;;;;3.47;1.05;;;;;;;10.43;85.24;100577.00;5093583;28;20047;-80
2024/04/04 04:17:51;;;;;;;7.03;2.17;;;;;;;10.55;85.06;100581.34;5081098;28;20058;-79
2024/04/04 04:24:19;;;;;;;7.40;2.92;;;;;;;10.54;85.51;100563.56;5093479;28;20047;-80
2024/04/04 04:27:24;;;;;;;7.65;1.50;;;;;;;10.46;85.88;100563.34;5093216;28;20390;-80
2024/04/04 04:30:28;;;;;;;8.52;1.80;;;;;;;10.62;85.07;100560.19;5093408;28;20490;-80
2024/04/04 04:33:33;;;;;;;5.40;1.40;;;;;;;10.65;84.79;100562.63;5086021;28;20043;-78
2024/04/04 04:36:52;;;;;;;4.40;1.33;;;;;;;10.60;84.60;100572.91;5072871;28;20052;-80
2024/04/04 04:39:58;;;;;;;5.28;1.20;;;;;;;10.62;84.81;100565.56;5073276;28;20051;-79
2024/04/04 04:43:02;;;;;;;3.55;1.23;;;;;;;10.74;84.40;100568.06;5073167;28;20052;-80
2024/04/04 04:46:07;;;;;;;4.13;1.30;;;;;;;10.82;84.10;100559.34;5060731;28;20498;-80
2024/04/04 04:49:11;;;;;;;7.13;1.10;;;;;;;10.78;83.77;100553.41;5072922;28;20044;-79
2024/04/04 04:52:19;;;;;;;5.00;1.40;;;;;;;10.89;83.83;100549.78;5072944;28;20051;-81
2024/04/04 04:55:24;;;;;;;3.85;1.40;;;;;;;11.02;83.19;100551.28;5072890;28;20063;-80
2024/04/04 04:58:30;;;;;;;11.35;1.25;;;;;;;10.88;83.59;100548.09;5072736;28;20411;-81
2024/04/04 05:01:37;;;;;;;4.45;1.75;;;;;;;10.87;83.85;100557.13;5072808;28;20071;-80
2024/04/04 05:04:42;;;;;;;8.00;1.42;;;;;;;10.88;83.73;100566.91;5076253;28;20052;-80
2024/04/04 05:07:47;;;;;;;3.13;0.95;;;;;;;11.21;83.02;100571.19;5064284;28;20048;-80
2024/04/04 05:10:52;;;;;;;5.40;1.40;;;;;;;11.17;81.94;100573.28;5076111;28;20051;-81
2024/04/04 05:13:57;;;;;;;4.90;1.67;;;;;;;11.43;81.52;100574.53;5076406;28;20495;-80
2024/04/04 05:17:01;;;;;;;7.82;1.98;;;;;;;11.83;80.19;100571.03;5076335;28;20047;-78
2024/04/04 05:20:07;;;;;;;7.10;1.90;;;;;;;11.99;79.17;100564.16;5076167;28;20064;-79
2024/04/04 05:23:12;;;;;;;7.03;1.90;;;;;;;12.32;77.80;100571.84;5076368;28;20380;-79
2024/04/04 05:26:17;;;;;;;5.72;1.85;;;;;;;12.88;76.17;100576.53;5076123;28;20055;-79
2024/04/04 05:29:21;;;;;;;3.95;1.25;;;;;;;13.68;73.10;100575.03;5075775;28;20483;-80
2024/04/04 05:32:26;;;;;;;5.28;1.27;;;;;;;14.34;68.84;100588.31;5052546;28;20040;-80
2024/04/04 05:35:30;;;;;;;6.47;1.42;;;;;;;14.41;67.65;100586.69;5076145;28;20494;-80
2024/04/04 05:38:36;;;;;;;7.72;1.35;;;;;;;14.73;67.54;100594.25;5075935;28;20052;-80
2024/04/04 05:41:41;;;;;;;10.98;1.52;;;;;;;14.20;68.94;100603.16;5075623;28;20059;-80
2024/04/04 05:44:46;;;;;;;14.88;2.05;;;;;;;13.89;70.09;100593.69;5075687;28;20063;-80
2024/04/04 05:47:50;;;;;;;8.55;2.53;;;;;;;13.85;69.92;100581.47;5075784;28;20079;-80
2024/04/04 05:51:04;;;;;;;12.25;5.57;;;;;;;13.60;70.87;100591.09;5075966;28;20059;-80
2024/04/04 05:54:08;;;;;;;9.45;4.28;;;;;;;13.25;72.17;100599.03;5077825;28;20048;-78
2024/04/04 05:57:13;;;;;;;7.45;2.30;;;;;;;13.57;71.84;100594.09;5062763;28;20052;-81
2024/04/04 06:00:18;;;;;;;29.58;11.35;;;;;;;13.67;72.07;100594.91;5075428;28;20056;-80
2024/04/04 06:03:22;;;;;;;19.67;6.45;;;;;;;13.80;72.04;100604.53;5075465;28;20040;-82
2024/04/04 06:06:27;;;;;;;10.05;2.75;;;;;;;13.90;71.74;100606.16;5075580;28;20154;-78
2024/04/04 06:09:31;;;;;;;12.60;3.28;;;;;;;14.75;69.68;100613.88;5075431;28;20043;-79
2024/04/04 06:12:36;;;;;;;14.48;2.38;;;;;;;14.36;70.50;100610.63;5075215;28;20043;-79
2024/04/04 06:15:41;;;;;;;8.68;2.38;;;;;;;14.34;71.38;100613.44;5074628;28;20131;-78
2024/04/04 06:18:46;;;;;;;6.60;2.00;;;;;;;14.56;71.05;100617.59;5075302;28;20056;-78
2024/04/04 06:21:52;;;;;;;12.40;2.55;;;;;;;14.84;71.08;100626.44;5062546;28;20059;-76
2024/04/04 06:24:56;;;;;;;8.73;2.55;;;;;;;14.92;70.28;100634.63;5074722;28;20052;-78
2024/04/04 06:28:01;;;;;;;12.77;2.95;;;;;;;15.29;69.86;100629.84;5075027;28;20103;-78
2024/04/04 06:31:06;;;;;;;6.55;2.30;;;;;;;15.51;68.62;100642.03;5074780;28;20048;-77
2024/04/04 06:34:15;;;;;;;6.20;2.17;;;;;;;15.56;68.59;100645.13;5062325;28;20064;-75
2024/04/04 06:37:20;;;;;;;8.88;1.85;;;;;;;15.90;67.57;100643.28;5062569;28;20376;-78
2024/04/04 06:40:26;;;;;;;6.70;1.80;;;;;;;15.93;67.53;100655.66;5075030;28;20059;-78
2024/04/04 06:43:31;;;;;;;12.35;1.80;;;;;;;16.07;67.47;100647.75;5074397;28;20044;-78
2024/04/04 06:46:36;;;;;;;7.80;2.80;;;;;;;16.20;67.33;100661.69;5074522;28;20055;-77
2024/04/04 06:49:41;;;;;;;5.65;1.98;;;;;;;16.03;67.86;100667.22;5074591;28;20044;-78
2024/04/04 06:52:45;;;;;;;5.30;1.55;;;;;;;16.11;68.46;100668.09;5074135;28;20055;-79
2024/04/04 06:55:50;;;;;;;8.07;1.92;;;;;;;16.16;68.06;100668.47;5073130;28;20060;-79
2024/04/04 06:58:55;;;;;;;5.53;1.98;;;;;;;16.49;67.97;100668.59;5072233;28;20056;-74
2024/04/04 07:02:00;;;;;;;10.13;4.13;;;;;;;17.06;67.05;100664.97;5074118;28;20059;-74
2024/04/04 07:05:06;;;;;;;11.50;5.28;;;;;;;17.68;64.85;100668.06;5074222;28;20081;-75
2024/04/04 07:08:10;;;;;;;8.57;3.00;;;;;;;17.81;63.30;100679.19;5074326;28;20052;-75
2024/04/04 07:11:15;;;;;;;6.00;2.03;;;;;;;17.66;63.86;100683.63;5074356;28;20056;-76
2024/04/04 07:14:20;;;;;;;6.47;2.55;;;;;;;17.88;63.78;100689.19;5074277;28;20051;-75
2024/04/04 07:17:28;;;;;;;6.20;1.63;;;;;;;18.25;63.38;100693.16;5073928;28;20059;-77
2024/04/04 07:20:33;;;;;;;6.65;2.35;;;;;;;18.60;62.69;100693.53;5074042;28;20048;-80
2024/04/04 07:23:37;;;;;;;6.30;2.28;;;;;;;19.36;60.32;100704.44;5061338;28;20055;-76
2024/04/04 07:26:48;;;;;;;12.15;3.08;;;;;;;21.12;55.75;100707.19;5073759;28;20052;-77
2024/04/04 07:29:54;;;;;;;7.07;2.53;;;;;;;22.78;49.72;100709.94;5073749;28;20085;-77
2024/04/04 07:32:59;;;;;;;7.28;2.00;;;;;;;24.08;44.37;100716.66;5073605;28;20051;-76
2024/04/04 07:36:04;;;;;;;8.75;1.98;;;;;;;24.36;43.67;100725.47;5073581;28;20471;-76
2024/04/04 07:39:09;;;;;;;6.03;2.10;;;;;;;24.03;43.31;100734.78;5073317;28;20047;-75
2024/04/04 07:42:15;;;;;;;6.05;1.90;;;;;;;24.45;43.83;100735.16;5073410;28;20057;-75
2024/04/04 07:45:20;;;;;;;6.30;1.83;;;;;;;26.81;39.73;100733.44;5073474;28;20047;-77
2024/04/04 07:48:27;;;;;;;3.50;1.70;;;;;;;29.09;35.23;100732.50;5073294;28;20162;-76
2024/04/04 07:51:32;;;;;;;5.15;1.88;;;;;;;30.74;32.09;100736.44;5061030;28;20043;-75
2024/04/04 07:54:39;;;;;;;4.85;1.83;;;;;;;33.01;29.10;100745.97;5073318;28;20059;-75
2024/04/04 07:57:44;;;;;;;11.60;2.90;;;;;;;33.98;27.31;100751.44;5072804;28;20051;-77
2024/04/04 08:00:48;;;;;;;4.88;2.22;;;;;;;34.15;27.17;100749.25;5073271;28;20056;-76
2024/04/04 08:03:53;;;;;;;6.68;2.30;;;;;;;35.32;25.64;100749.72;5073259;28;20047;-77
2024/04/04 08:06:58;;;;;;;6.57;2.53;;;;;;;35.75;25.16;100765.69;5073263;28;20059;-77
2024/04/04 08:10:06;;;;;;;5.13;2.03;;;;;;;35.15;25.39;100769.66;5060923;28;20052;-77
2024/04/04 08:13:11;;;;;;;8.50;2.15;;;;;;;35.32;25.30;100775.69;5073355;28;20051;-77
2024/04/04 08:16:17;;;;;;;4.47;1.80;;;;;;;35.53;25.13;100768.06;5073298;28;20075;-77
2024/04/04 08:19:21;;;;;;;4.25;1.90;;;;;;;35.48;24.76;100773.66;5060859;28;20047;-77
2024/04/04 08:22:26;;;;;;;5.68;1.88;;;;;;;35.48;24.52;100771.69;5060634;28;20072;-76
2024/04/04 08:25:31;;;;;;;6.13;1.70;;;;;;;36.20;24.69;100782.06;5060731;28;20048;-75
2024/04/04 08:28:37;;;;;;;7.90;2.33;;;;;;;36.38;24.44;100788.91;5073056;28;20154;-77
2024/04/04 08:31:42;;;;;;;5.25;1.83;;;;;;;37.25;23.18;100778.41;5072879;28;20056;-77
2024/04/04 08:34:49;;;;;;;4.22;1.55;;;;;;;37.42;23.52;100771.19;5073031;28;20155;-77
2024/04/04 08:37:53;;;;;;;4.57;1.88;;;;;;;37.48;23.39;100767.19;5073569;28;20059;-74
2024/04/04 08:41:07;;;;;;;6.22;1.60;;;;;;;37.14;23.34;100772.13;5077077;28;20048;-77
2024/04/04 08:44:13;;;;;;;7.05;2.80;;;;;;;37.67;22.78;100770.81;5077078;28;20048;-77
2024/04/04 08:47:22;;;;;;;5.00;1.75;;;;;;;37.07;23.47;100764.09;5076935;28;20040;-78
2024/04/04 08:50:29;;;;;;;4.55;1.42;;;;;;;36.19;23.97;100766.44;5076830;28;20051;-78
2024/04/04 08:53:33;;;;;;;5.40;1.85;;;;;;;37.01;23.47;100772.88;5076729;28;20040;-76
2024/04/04 08:56:38;;;;;;;5.10;1.60;;;;;;;37.05;22.97;100771.97;5076273;28;20392;-77
2024/04/04 08:59:54;;;;;;;5.88;1.63;;;;;;;35.43;24.75;100779.28;5076414;28;20047;-77
2024/04/04 09:03:00;;;;;;;5.63;1.45;;;;;;;34.86;25.36;100789.00;5076292;28;20056;-74
2024/04/04 09:06:07;;;;;;;6.05;1.65;;;;;;;34.19;26.23;100786.59;5076300;28;20055;-77
2024/04/04 09:09:11;;;;;;;6.18;1.70;;;;;;;32.99;27.47;100781.53;5076458;28;20078;-77
2024/04/04 09:12:17;;;;;;;7.97;2.63;;;;;;;31.13;30.19;100778.84;5064164;28;20056;-77
2024/04/04 09:15:23;;;;;;;9.77;2.17;;;;;;;29.19;32.14;100778.88;5076082;28;20047;-77
2024/04/04 09:18:28;;;;;;;8.57;2.05;;;;;;;28.41;34.13;100790.44;5076144;28;20051;-77
2024/04/04 09:21:33;;;;;;;6.40;1.77;;;;;;;27.44;35.17;100789.00;5076287;28;20482;-76
2024/04/04 09:24:40;;;;;;;7.65;1.80;;;;;;;26.81;36.83;100783.00;5075925;28;20072;-76
2024/04/04 09:27:45;;;;;;;5.75;2.35;;;;;;;26.92;36.90;100796.03;5076107;28;20060;-76
2024/04/04 09:30:51;;;;;;;5.97;1.90;;;;;;;26.69;37.38;100784.81;5075818;28;20055;-76
2024/04/04 09:33:57;;;;;;;7.75;1.92;;;;;;;26.01;38.80;100785.91;5075870;28;20051;-76
2024/04/04 09:37:04;;;;;;;6.32;2.05;;;;;;;25.59;39.52;100787.50;5063435;28;20052;-76
2024/04/04 09:40:11;;;;;;;7.07;1.77;;;;;;;25.23;40.93;100794.44;5075484;28;20048;-75
2024/04/04 09:43:17;;;;;;;13.50;2.15;;;;;;;24.88;41.37;100795.88;5075621;28;20075;-75
2024/04/04 09:46:22;;;;;;;6.85;1.80;;;;;;;24.25;43.46;100782.88;5075732;28;20392;-75
2024/04/04 09:49:27;;;;;;;5.45;1.77;;;;;;;24.04;44.20;100786.69;5074439;28;20055;-77
2024/04/04 09:52:34;;;;;;;12.05;2.83;;;;;;;23.64;44.98;100779.50;5075478;28;20052;-76
2024/04/04 09:55:38;;;;;;;6.70;2.30;;;;;;;23.56;45.61;100787.91;5075596;28;20102;-77
2024/04/04 09:58:44;;;;;;;9.38;1.88;;;;;;;23.67;45.60;100790.91;5075657;28;20044;-76
2024/04/04 10:01:49;;;;;;;9.95;2.90;;;;;;;23.55;45.15;100791.72;5063232;28;20055;-77
2024/04/04 10:04:54;;;;;;;8.55;3.13;;;;;;;23.24;46.04;100797.69;5075332;28;20051;-77
2024/04/04 10:08:12;;;;;;;7.10;2.30;;;;;;;23.12;46.67;100799.34;5063156;28;20051;-75
2024/04/04 10:11:26;;;;;;;6.32;2.00;;;;;;;23.09;47.37;100797.88;5075039;28;20422;-76
2024/04/04 10:14:31;;;;;;;9.93;2.97;;;;;;;23.46;46.15;100788.31;5075478;28;20044;-74
2024/04/04 10:17:50;;;;;;;8.50;2.60;;;;;;;23.28;46.79;100788.03;5075134;28;20051;-76
2024/04/04 10:21:10;;;;;;;7.45;2.35;;;;;;;23.01;46.86;100789.00;5075186;28;20056;-76
2024/04/04 10:24:41;;;;;;;5.78;2.10;;;;;;;23.04;47.21;100780.34;5075468;28;20059;-77
2024/04/04 10:27:47;;;;;;;6.43;2.15;;;;;;;23.05;47.29;100779.31;5074879;28;20047;-77
2024/04/04 10:30:52;;;;;;;8.20;2.22;;;;;;;23.18;48.33;100785.66;5062464;28;20051;-76
2024/04/04 10:34:04;;;;;;;7.60;2.50;;;;;;;23.10;48.66;100772.19;5074955;28;20062;-77
2024/04/04 10:37:14;;;;;;;6.15;2.05;;;;;;;22.80;48.71;100779.00;5074870;28;20498;-76
2024/04/04 10:40:25;;;;;;;8.57;2.30;;;;;;;22.66;49.51;100774.53;5074790;28;20052;-76
2024/04/04 10:43:39;;;;;;;6.47;2.55;;;;;;;22.81;49.37;100763.44;5074750;28;20059;-77
2024/04/04 10:46:47;;;;;;;5.35;1.95;;;;;;;23.19;48.15;100767.34;5050728;28;20039;-77
2024/04/04 10:49:52;;;;;;;8.35;2.08;;;;;;;23.55;46.72;100770.63;5074323;28;20051;-77
2024/04/04 10:52:57;;;;;;;6.65;2.03;;;;;;;23.54;46.22;100768.09;5074641;28;20067;-77
2024/04/04 10:56:03;;;;;;;6.97;1.42;;;;;;;23.89;44.95;100767.72;5080092;28;20105;-77
2024/04/04 10:59:08;;;;;;;10.07;2.22;;;;;;;23.73;46.14;100768.09;5074433;28;20047;-77
2024/04/04 11:02:13;;;;;;;6.18;1.73;;;;;;;23.14;47.62;100756.16;5073811;28;20055;-77
2024/04/04 11:05:19;;;;;;;7.90;1.95;;;;;;;22.78;49.13;100755.63;5074278;28;20396;-76
2024/04/04 11:08:24;;;;;;;8.10;1.90;;;;;;;22.84;49.39;100754.81;5074378;28;20059;-74
2024/04/04 11:11:29;;;;;;;5.65;2.03;;;;;;;22.60;49.83;100751.50;5074240;28;20399;-77
2024/04/04 11:14:34;;;;;;;7.38;2.00;;;;;;;22.21;51.63;100753.16;5074990;28;20051;-74
2024/04/04 11:17:41;;;;;;;6.53;2.40;;;;;;;22.38;50.62;100747.16;5074717;28;20051;-75
2024/04/04 11:20:46;;;;;;;7.95;2.20;;;;;;;22.55;50.46;100737.59;5061905;28;20399;-77
2024/04/04 11:23:50;;;;;;;11.30;2.45;;;;;;;22.63;50.63;100736.59;5073912;28;20383;-77
2024/04/04 11:26:55;;;;;;;8.07;2.50;;;;;;;22.37;50.61;100731.78;5073864;28;20115;-76
2024/04/04 11:30:00;;;;;;;8.20;2.25;;;;;;;22.43;50.50;100724.69;5073888;28;20054;-75
2024/04/04 11:33:05;;;;;;;8.10;2.13;;;;;;;22.40;50.80;100720.44;5073672;28;20051;-77
2024/04/04 11:36:10;;;;;;;5.38;2.10;;;;;;;22.40;51.10;100709.50;5073783;28;20044;-76
2024/04/04 11:39:17;;;;;;;8.00;2.75;;;;;;;22.67;50.63;100705.88;5073792;28;20047;-77
2024/04/04 11:42:34;;;;;;;8.23;2.60;;;;;;;22.50;51.14;100693.56;5073804;28;20055;-77
2024/04/04 11:45:39;;;;;;;9.27;2.13;;;;;;;22.47;50.67;100696.69;5073715;28;20051;-77
2024/04/04 11:48:44;;;;;;;6.03;1.95;;;;;;;22.38;51.37;100684.25;5073454;28;20052;-76
2024/04/04 11:51:50;;;;;;;8.40;2.30;;;;;;;22.28;52.45;100696.59;5073535;28;20060;-76
2024/04/04 11:54:55;;;;;;;6.70;2.10;;;;;;;22.14;52.63;100684.75;5038735;28;20490;-76
2024/04/04 11:58:00;;;;;;;8.10;1.92;;;;;;;22.09;53.26;100664.53;5060526;28;20403;-75
2024/04/04 12:01:05;;;;;;;5.82;2.40;;;;;;;22.19;53.46;100657.66;5073591;28;20055;-76
2024/04/04 12:04:09;;;;;;;8.50;2.00;;;;;;;22.03;53.97;100660.69;5060754;28;20051;-75
2024/04/04 12:07:14;;;;;;;7.28;2.28;;;;;;;21.89;54.08;100658.94;5073508;28;20051;-77
2024/04/04 12:10:20;;;;;;;8.88;2.20;;;;;;;22.20;53.91;100653.84;5061175;28;20051;-77
2024/04/04 12:13:25;;;;;;;6.70;2.13;;;;;;;22.38;53.93;100656.91;5072635;28;20060;-77
2024/04/04 12:16:31;;;;;;;8.95;2.72;;;;;;;22.19;53.29;100649.44;5073218;28;20056;-76
2024/04/04 12:19:36;;;;;;;7.63;2.53;;;;;;;22.11;53.58;100649.59;5073315;28;20056;-77
2024/04/04 12:22:41;;;;;;;10.13;2.50;;;;;;;22.19;53.89;100654.06;5073498;28;20052;-77
2024/04/04 12:25:47;;;;;;;11.05;2.75;;;;;;;22.13;53.99;100652.13;5073211;28;20067;-76
2024/04/04 12:28:54;;;;;;;6.88;2.33;;;;;;;21.72;54.49;100669.31;5072976;28;20048;-77
2024/04/04 12:31:59;;;;;;;8.30;2.35;;;;;;;21.76;54.51;100662.38;5060616;28;20052;-77
2024/04/04 12:35:04;;;;;;;6.05;2.10;;;;;;;21.85;54.46;100666.69;5060645;28;20048;-76
2024/04/04 12:38:08;;;;;;;5.68;2.15;;;;;;;21.97;54.70;100659.59;5073225;28;20059;-77
2024/04/04 12:41:13;;;;;;;5.43;2.00;;;;;;;21.83;54.77;100663.28;5073117;28;20411;-77
2024/04/04 12:44:19;;;;;;;8.43;2.25;;;;;;;22.07;55.05;100675.69;5073115;28;20063;-77
2024/04/04 12:47:24;;;;;;;10.60;2.97;;;;;;;21.91;54.76;100667.78;5073007;28;20040;-76
2024/04/04 12:50:29;;;;;;;10.50;2.35;;;;;;;21.99;55.30;100662.16;5073008;28;20052;-76
2024/04/04 12:53:33;;;;;;;8.82;2.55;;;;;;;21.88;56.00;100655.34;5073070;28;20490;-76
2024/04/04 12:56:37;;;;;;;7.75;2.40;;;;;;;21.89;54.97;100653.47;5072603;28;20055;-77
2024/04/04 12:59:42;;;;;;;4.78;2.08;;;;;;;21.94;55.45;100662.78;5072965;28;20048;-76
2024/04/04 13:02:47;;;;;;;8.05;2.15;;;;;;;22.12;55.25;100667.69;5072902;28;20111;-76
2024/04/04 13:05:57;;;;;;;9.68;2.83;;;;;;;21.98;55.61;100672.25;5072600;28;20086;-76
2024/04/04 13:09:02;;;;;;;5.82;2.35;;;;;;;21.99;55.69;100684.03;5060600;28;20593;-76
2024/04/04 13:12:07;;;;;;;7.00;2.10;;;;;;;22.05;55.21;100685.13;5072804;28;20490;-76
2024/04/04 13:15:12;;;;;;;6.55;2.10;;;;;;;22.02;55.40;100678.16;5049080;28;20051;-75
2024/04/04 13:18:18;;;;;;;9.73;2.58;;;;;;;21.85;55.97;100677.63;5072802;28;20063;-77
2024/04/04 13:21:23;;;;;;;8.70;2.30;;;;;;;22.02;55.17;100662.59;5072536;28;20055;-77
2024/04/04 13:24:28;;;;;;;7.28;2.50;;;;;;;22.02;55.66;100665.31;5061822;28;20071;-77
2024/04/04 13:27:34;;;;;;;7.63;2.13;;;;;;;22.15;55.11;100656.34;5063822;28;20051;-76
2024/04/04 13:30:39;;;;;;;8.70;2.28;;;;;;;22.20;54.89;100653.00;5063899;28;20060;-76
2024/04/04 13:33:44;;;;;;;11.25;3.22;;;;;;;22.15;54.99;100647.28;5076072;28;20388;-76
2024/04/04 13:36:48;;;;;;;8.95;2.80;;;;;;;22.21;54.94;100644.63;5075929;28;20072;-76
2024/04/04 13:39:54;;;;;;;6.63;2.00;;;;;;;22.12;55.29;100625.84;5063727;28;20412;-76
2024/04/04 13:42:59;;;;;;;9.60;2.25;;;;;;;22.18;54.58;100617.66;5075925;28;20063;-76
2024/04/04 13:46:03;;;;;;;7.03;1.63;;;;;;;22.27;54.76;100605.50;5075643;28;20055;-76
2024/04/04 13:49:08;;;;;;;10.65;1.92;;;;;;;22.33;54.68;100599.22;5075851;28;20056;-76
2024/04/04 13:52:13;;;;;;;9.15;2.70;;;;;;;21.17;57.58;100600.97;5075845;28;20055;-77
2024/04/04 13:55:18;;;;;;;7.60;2.08;;;;;;;21.89;53.52;100596.06;5075757;28;20059;-76
2024/04/04 13:58:23;;;;;;;8.07;1.90;;;;;;;22.17;55.69;100588.63;5075565;28;20498;-76
2024/04/04 14:01:35;;;;;;;7.00;2.08;;;;;;;22.07;56.13;100579.97;5063304;28;20067;-77
2024/04/04 14:04:39;;;;;;;5.25;1.70;;;;;;;22.24;54.61;100564.91;5075552;28;20413;-76
2024/04/04 14:07:44;;;;;;;6.18;2.00;;;;;;;22.15;54.04;100563.38;5075506;28;20039;-77
2024/04/04 14:10:49;;;;;;;7.32;2.20;;;;;;;22.26;53.34;100578.38;5075457;28;20039;-76
2024/04/04 14:13:54;;;;;;;6.07;1.55;;;;;;;22.09;54.12;100577.88;5075008;28;20491;-77
2024/04/04 14:17:01;;;;;;;7.65;1.50;;;;;;;21.89;54.43;100577.78;5075454;28;20048;-77
2024/04/04 14:20:06;;;;;;;5.07;1.30;;;;;;;22.25;53.84;100579.41;5074740;28;20043;-76
2024/04/04 14:23:14;;;;;;;6.55;1.50;;;;;;;22.12;54.64;100565.69;5062849;28;20056;-75
2024/04/04 14:26:18;;;;;;;6.30;1.40;;;;;;;21.93;54.17;100570.84;5074750;28;20498;-76